createdAt,value
2023-01-23T00:08:00.005Z,25.6103515625
2023-01-23T00:17:59.857Z,25
2023-01-23T00:28:00.921Z,26.0986328125
2023-01-23T00:37:59.741Z,27.197265625
2023-01-23T00:48:00.455Z,27.001953125
2023-01-23T00:57:59.548Z,27.392578125
2023-01-23T01:07:59.471Z,27.294921875
2023-01-23T01:17:59.431Z,28.0029296875
2023-01-23T01:27:59.333Z,27.392578125
2023-01-23T01:37:59.279Z,28.1982421875
2023-01-23T01:47:59.231Z,28.1982421875
2023-01-23T01:57:59.423Z,27.7099609375
2023-01-23T02:07:59.259Z,28.2958984375
2023-01-23T02:17:59.113Z,27.490234375
2023-01-23T02:27:58.911Z,28.3935546875
2023-01-23T02:37:58.942Z,28.1982421875
2023-01-23T02:47:58.800Z,27.099609375
2023-01-23T02:57:58.734Z,26.0009765625
2023-01-23T03:07:58.643Z,25
2023-01-23T03:17:58.662Z,24.40185546875
2023-01-23T03:27:58.486Z,23.8037109375
2023-01-23T03:37:58.417Z,23.40087890625
2023-01-23T03:47:58.374Z,22.900390625
2023-01-23T03:57:58.252Z,22.0947265625
2023-01-23T04:07:58.225Z,21.7041015625
2023-01-23T04:17:58.105Z,21.39892578125
2023-01-23T04:27:58.058Z,21.30126953125
2023-01-23T04:37:57.989Z,20.99609375
2023-01-23T04:47:57.931Z,20.80078125
2023-01-23T04:57:57.911Z,20.49560546875
2023-01-23T05:07:58.878Z,20.30029296875
2023-01-23T05:17:57.730Z,20.10498046875
2023-01-23T05:27:57.630Z,19.8974609375
2023-01-23T05:37:57.546Z,19.49462890625
2023-01-23T05:47:57.486Z,19.29931640625
2023-01-23T05:57:57.374Z,19.20166015625
2023-01-23T06:07:57.331Z,19.10400390625
2023-01-23T06:17:57.338Z,18.701171875
2023-01-23T06:27:57.162Z,18.603515625
2023-01-23T06:37:57.220Z,18.603515625
2023-01-23T06:47:57.002Z,18.10302734375
2023-01-23T06:57:56.957Z,17.7978515625
2023-01-23T07:07:57.898Z,17.39501953125
2023-01-23T07:17:56.980Z,17.10205078125
2023-01-23T07:27:56.748Z,17.19970703125
2023-01-23T07:37:56.669Z,17.00439453125
2023-01-23T07:47:56.590Z,16.796875
2023-01-23T07:57:56.567Z,16.6015625
2023-01-23T08:08:12.007Z,16.50390625
2023-01-23T08:17:56.358Z,16.29638671875
2023-01-23T08:27:56.470Z,16.39404296875
2023-01-23T08:37:56.220Z,16.19873046875
2023-01-23T08:47:56.155Z,16.19873046875
2023-01-23T08:57:56.175Z,15.6982421875
2023-01-23T09:07:56.396Z,15.4052734375
2023-01-23T09:17:58.667Z,15.29541015625
2023-01-23T09:27:55.904Z,15.10009765625
2023-01-23T09:37:58.770Z,14.794921875
2023-01-23T09:47:55.725Z,14.599609375
2023-01-23T09:57:55.681Z,14.404296875
2023-01-23T10:07:55.634Z,14.19677734375
2023-01-23T10:17:55.579Z,14.09912109375
2023-01-23T10:27:55.433Z,14.19677734375
2023-01-23T10:37:55.370Z,14.29443359375
2023-01-23T10:47:55.591Z,14.29443359375
2023-01-23T10:57:55.195Z,14.29443359375
2023-01-23T11:07:55.162Z,14.00146484375
2023-01-23T11:17:55.191Z,13.90380859375
2023-01-23T11:27:54.992Z,14.00146484375
2023-01-23T11:37:54.915Z,14.00146484375
2023-01-23T11:47:54.850Z,14.09912109375
2023-01-23T11:57:55.062Z,14.09912109375
2023-01-23T12:07:56.055Z,14.501953125
2023-01-23T12:17:54.661Z,14.29443359375
2023-01-23T12:27:54.679Z,14.19677734375
2023-01-23T12:37:54.507Z,15.00244140625
2023-01-23T12:47:54.444Z,14.501953125
2023-01-23T12:58:00.067Z,14.19677734375
2023-01-23T13:07:54.291Z,14.00146484375
2023-01-23T13:17:54.911Z,13.90380859375
2023-01-23T13:27:54.141Z,13.7939453125
2023-01-23T13:37:56.547Z,13.5009765625
2023-01-23T14:27:54.766Z,12.90283203125
2023-01-23T14:37:53.680Z,12.90283203125
2023-01-23T14:48:05.299Z,12.90283203125
2023-01-23T14:57:55.957Z,12.90283203125
2023-01-23T15:07:53.803Z,12.90283203125
2023-01-23T15:17:53.354Z,12.6953125
2023-01-23T15:27:53.263Z,12.6953125
2023-01-23T15:37:53.215Z,12.59765625
2023-01-23T15:47:53.144Z,12.5
2023-01-23T15:57:55.495Z,12.59765625
2023-01-23T16:07:53.815Z,12.59765625
2023-01-23T16:17:52.937Z,12.40234375
2023-01-23T16:27:52.956Z,12.40234375
2023-01-23T16:37:52.789Z,12.298583984375
2023-01-23T16:47:55.408Z,12.298583984375
2023-01-23T16:57:52.744Z,12.200927734375
2023-01-23T17:07:52.650Z,12.200927734375
2023-01-23T17:17:52.934Z,12.200927734375
2023-01-23T17:28:07.283Z,12.09716796875
2023-01-23T17:37:52.368Z,12.09716796875
2023-01-23T17:47:52.295Z,12.298583984375
2023-01-23T17:57:53.224Z,12.298583984375
2023-01-23T18:07:54.098Z,12.298583984375
2023-01-23T18:17:52.185Z,12.40234375
2023-01-23T18:27:54.749Z,12.40234375
2023-01-23T18:37:51.937Z,12.5
2023-01-23T18:47:51.859Z,12.5
2023-01-23T18:57:51.756Z,12.59765625
2023-01-23T19:07:51.840Z,12.5
2023-01-23T19:17:51.650Z,12.59765625
2023-01-23T19:27:51.564Z,12.59765625
2023-01-23T19:37:51.482Z,12.6953125
2023-01-23T19:47:51.407Z,12.80517578125
2023-01-23T19:57:51.356Z,12.90283203125
2023-01-23T20:07:51.359Z,13.09814453125
2023-01-23T20:17:51.201Z,13.19580078125
2023-01-23T20:27:51.164Z,13.4033203125
2023-01-23T20:37:51.081Z,14.09912109375
2023-01-23T20:47:51.004Z,15.19775390625
2023-01-23T20:57:50.909Z,16.39404296875
2023-01-23T21:07:50.837Z,17.5048828125
2023-01-23T21:17:50.867Z,18.29833984375
2023-01-23T21:27:50.709Z,19.29931640625
2023-01-23T21:37:50.633Z,20.10498046875
2023-01-23T21:47:50.533Z,19.9951171875
2023-01-23T21:57:50.450Z,21.10595703125
2023-01-23T22:07:50.407Z,21.7041015625
2023-01-23T22:17:50.313Z,21.7041015625
2023-01-23T22:27:50.262Z,22.59521484375
2023-01-23T22:37:50.173Z,22.900390625
2023-01-23T22:47:50.105Z,23.49853515625
2023-01-23T22:57:50.061Z,23.49853515625
2023-01-23T23:07:49.987Z,23.8037109375
2023-01-23T23:17:49.944Z,24.30419921875
2023-01-23T23:27:49.809Z,24.0966796875
2023-01-23T23:37:49.718Z,24.59716796875
2023-01-23T23:47:49.773Z,25
2023-01-23T23:57:49.679Z,25.09765625
